sensor_id;sensor_type;location;lat;lon;timestamp;temperature;humidity
21759;DHT22;11041;50.854;20.580;2023-08-31T00:00:55;16.50;99.90
21759;DHT22;11041;50.854;20.580;2023-08-31T00:03:33;16.50;99.90
21759;DHT22;11041;50.854;20.580;2023-08-31T00:06:04;16.50;99.90
21759;DHT22;11041;50.854;20.580;2023-08-31T00:08:34;16.40;99.90
21759;DHT22;11041;50.854;20.580;2023-08-31T00:11:06;16.40;99.90
21759;DHT22;11041;50.854;20.580;2023-08-31T00:13:38;16.40;99.90
21759;DHT22;11041;50.854;20.580;2023-08-31T00:16:10;16.40;99.90
21759;DHT22;11041;50.854;20.580;2023-08-31T00:18:42;16.30;99.90
21759;DHT22;11041;50.854;20.580;2023-08-31T00:21:12;16.30;99.90
21759;DHT22;11041;50.854;20.580;2023-08-31T00:23:41;16.20;99.90
21759;DHT22;11041;50.854;20.580;2023-08-31T00:26:11;16.20;99.90
21759;DHT22;11041;50.854;20.580;2023-08-31T00:28:45;16.20;99.90
21759;DHT22;11041;50.854;20.580;2023-08-31T00:31:19;16.20;99.90
21759;DHT22;11041;50.854;20.580;2023-08-31T00:33:47;16.20;99.90
21759;DHT22;11041;50.854;20.580;2023-08-31T00:36:18;16.20;99.90
21759;DHT22;11041;50.854;20.580;2023-08-31T00:38:46;16.20;99.90
21759;DHT22;11041;50.854;20.580;2023-08-31T00:41:15;16.20;99.90
21759;DHT22;11041;50.854;20.580;2023-08-31T00:43:44;16.30;99.90
21759;DHT22;11041;50.854;20.580;2023-08-31T00:46:18;16.20;99.90
21759;DHT22;11041;50.854;20.580;2023-08-31T00:48:49;16.10;99.90
21759;DHT22;11041;50.854;20.580;2023-08-31T00:51:20;16.20;99.90
21759;DHT22;11041;50.854;20.580;2023-08-31T00:53:51;16.10;99.90
21759;DHT22;11041;50.854;20.580;2023-08-31T00:56:23;16.10;99.90
21759;DHT22;11041;50.854;20.580;2023-08-31T00:58:51;16.00;99.90
21759;DHT22;11041;50.854;20.580;2023-08-31T01:01:32;16.00;99.90
21759;DHT22;11041;50.854;20.580;2023-08-31T01:04:24;16.10;99.90
21759;DHT22;11041;50.854;20.580;2023-08-31T01:08:24;16.00;99.90
21759;DHT22;11041;50.854;20.580;2023-08-31T01:11:15;16.10;99.90
21759;DHT22;11041;50.854;20.580;2023-08-31T01:14:12;15.90;99.90
21759;DHT22;11041;50.854;20.580;2023-08-31T01:16:49;15.90;99.90
21759;DHT22;11041;50.854;20.580;2023-08-31T01:22:38;16.00;99.90
21759;DHT22;11041;50.854;20.580;2023-08-31T01:25:11;15.90;99.90
21759;DHT22;11041;50.854;20.580;2023-08-31T01:27:39;15.90;99.90
21759;DHT22;11041;50.854;20.580;2023-08-31T01:30:09;15.90;99.90
21759;DHT22;11041;50.854;20.580;2023-08-31T01:32:39;15.70;99.90
21759;DHT22;11041;50.854;20.580;2023-08-31T01:35:16;15.70;99.90
21759;DHT22;11041;50.854;20.580;2023-08-31T01:37:54;15.70;99.90
21759;DHT22;11041;50.854;20.580;2023-08-31T01:40:45;15.70;99.90
21759;DHT22;11041;50.854;20.580;2023-08-31T01:43:21;15.80;99.90
21759;DHT22;11041;50.854;20.580;2023-08-31T01:45:50;15.70;99.90
21759;DHT22;11041;50.854;20.580;2023-08-31T01:48:19;15.70;99.90
21759;DHT22;11041;50.854;20.580;2023-08-31T01:50:49;15.70;99.90
21759;DHT22;11041;50.854;20.580;2023-08-31T01:53:17;15.50;99.90
21759;DHT22;11041;50.854;20.580;2023-08-31T01:55:47;15.60;99.90
21759;DHT22;11041;50.854;20.580;2023-08-31T01:58:16;15.60;99.90
21759;DHT22;11041;50.854;20.580;2023-08-31T02:00:44;15.60;99.90
21759;DHT22;11041;50.854;20.580;2023-08-31T02:03:12;15.50;99.90
21759;DHT22;11041;50.854;20.580;2023-08-31T02:05:40;15.50;99.90
21759;DHT22;11041;50.854;20.580;2023-08-31T02:08:09;15.50;99.90
21759;DHT22;11041;50.854;20.580;2023-08-31T02:10:41;15.50;99.90
21759;DHT22;11041;50.854;20.580;2023-08-31T02:13:10;15.50;99.90
21759;DHT22;11041;50.854;20.580;2023-08-31T02:15:41;15.40;99.90
21759;DHT22;11041;50.854;20.580;2023-08-31T02:18:15;15.40;99.90
21759;DHT22;11041;50.854;20.580;2023-08-31T02:20:47;15.40;99.90
21759;DHT22;11041;50.854;20.580;2023-08-31T02:23:18;15.40;99.90
21759;DHT22;11041;50.854;20.580;2023-08-31T02:25:53;15.30;99.90
21759;DHT22;11041;50.854;20.580;2023-08-31T02:28:21;15.40;99.90
21759;DHT22;11041;50.854;20.580;2023-08-31T02:31:01;15.40;99.90
21759;DHT22;11041;50.854;20.580;2023-08-31T02:33:31;15.40;99.90
21759;DHT22;11041;50.854;20.580;2023-08-31T02:36:00;15.50;99.90
21759;DHT22;11041;50.854;20.580;2023-08-31T02:38:29;15.50;99.90
21759;DHT22;11041;50.854;20.580;2023-08-31T02:40:56;15.50;99.90
21759;DHT22;11041;50.854;20.580;2023-08-31T02:43:27;15.50;99.90
21759;DHT22;11041;50.854;20.580;2023-08-31T02:46:01;15.50;99.90
21759;DHT22;11041;50.854;20.580;2023-08-31T02:48:34;15.50;99.90
21759;DHT22;11041;50.854;20.580;2023-08-31T02:51:10;15.50;99.90
21759;DHT22;11041;50.854;20.580;2023-08-31T02:53:42;15.50;99.90
21759;DHT22;11041;50.854;20.580;2023-08-31T02:56:11;15.50;99.90
21759;DHT22;11041;50.854;20.580;2023-08-31T02:58:39;15.60;99.90
21759;DHT22;11041;50.854;20.580;2023-08-31T03:01:13;15.70;99.90
21759;DHT22;11041;50.854;20.580;2023-08-31T03:03:41;15.70;99.90
21759;DHT22;11041;50.854;20.580;2023-08-31T03:06:12;15.70;99.90
21759;DHT22;11041;50.854;20.580;2023-08-31T03:08:43;15.70;99.90
21759;DHT22;11041;50.854;20.580;2023-08-31T03:11:14;15.80;99.90
21759;DHT22;11041;50.854;20.580;2023-08-31T03:13:43;15.70;99.90
21759;DHT22;11041;50.854;20.580;2023-08-31T03:16:18;15.70;99.90
21759;DHT22;11041;50.854;20.580;2023-08-31T03:18:47;15.70;99.90
21759;DHT22;11041;50.854;20.580;2023-08-31T03:21:18;15.70;99.90
21759;DHT22;11041;50.854;20.580;2023-08-31T03:23:49;15.70;99.90
21759;DHT22;11041;50.854;20.580;2023-08-31T03:26:19;15.80;99.90
21759;DHT22;11041;50.854;20.580;2023-08-31T03:28:49;15.70;99.90
21759;DHT22;11041;50.854;20.580;2023-08-31T03:31:18;15.70;99.90
21759;DHT22;11041;50.854;20.580;2023-08-31T03:33:49;15.70;99.90
21759;DHT22;11041;50.854;20.580;2023-08-31T03:36:18;15.70;99.90
21759;DHT22;11041;50.854;20.580;2023-08-31T03:38:50;15.70;99.90
21759;DHT22;11041;50.854;20.580;2023-08-31T03:41:19;15.70;99.90
21759;DHT22;11041;50.854;20.580;2023-08-31T03:43:49;15.70;99.90
21759;DHT22;11041;50.854;20.580;2023-08-31T03:46:19;15.70;99.90
21759;DHT22;11041;50.854;20.580;2023-08-31T03:48:47;15.70;99.90
21759;DHT22;11041;50.854;20.580;2023-08-31T03:51:18;15.70;99.90
21759;DHT22;11041;50.854;20.580;2023-08-31T03:53:52;15.70;99.90
21759;DHT22;11041;50.854;20.580;2023-08-31T03:56:25;15.70;99.90
21759;DHT22;11041;50.854;20.580;2023-08-31T03:58:54;15.70;99.90
21759;DHT22;11041;50.854;20.580;2023-08-31T04:01:21;15.70;99.90
21759;DHT22;11041;50.854;20.580;2023-08-31T04:03:47;15.70;99.90
21759;DHT22;11041;50.854;20.580;2023-08-31T04:06:22;15.70;99.90
21759;DHT22;11041;50.854;20.580;2023-08-31T04:08:54;15.70;99.90
21759;DHT22;11041;50.854;20.580;2023-08-31T04:11:26;15.70;99.90
21759;DHT22;11041;50.854;20.580;2023-08-31T04:13:55;15.70;99.90
21759;DHT22;11041;50.854;20.580;2023-08-31T04:16:25;15.70;99.90
21759;DHT22;11041;50.854;20.580;2023-08-31T04:18:55;15.70;99.90
21759;DHT22;11041;50.854;20.580;2023-08-31T04:21:25;15.70;99.90
21759;DHT22;11041;50.854;20.580;2023-08-31T04:23:56;15.70;99.90
21759;DHT22;11041;50.854;20.580;2023-08-31T04:26:25;15.80;99.90
21759;DHT22;11041;50.854;20.580;2023-08-31T04:28:52;15.80;99.90
21759;DHT22;11041;50.854;20.580;2023-08-31T04:31:20;15.80;99.90
21759;DHT22;11041;50.854;20.580;2023-08-31T04:33:50;15.80;99.90
21759;DHT22;11041;50.854;20.580;2023-08-31T04:36:21;15.80;99.90
21759;DHT22;11041;50.854;20.580;2023-08-31T04:38:51;15.80;99.90
21759;DHT22;11041;50.854;20.580;2023-08-31T04:41:21;15.80;99.90
21759;DHT22;11041;50.854;20.580;2023-08-31T04:43:53;15.80;99.90
21759;DHT22;11041;50.854;20.580;2023-08-31T04:46:20;15.80;99.90
21759;DHT22;11041;50.854;20.580;2023-08-31T04:48:47;15.80;99.90
21759;DHT22;11041;50.854;20.580;2023-08-31T04:51:33;15.80;99.90
21759;DHT22;11041;50.854;20.580;2023-08-31T04:54:09;15.80;99.90
21759;DHT22;11041;50.854;20.580;2023-08-31T04:56:37;15.80;99.90
21759;DHT22;11041;50.854;20.580;2023-08-31T04:59:06;15.80;99.90
21759;DHT22;11041;50.854;20.580;2023-08-31T05:01:37;15.80;99.90
21759;DHT22;11041;50.854;20.580;2023-08-31T05:04:10;15.90;99.90
21759;DHT22;11041;50.854;20.580;2023-08-31T05:06:42;16.00;99.90
21759;DHT22;11041;50.854;20.580;2023-08-31T05:09:08;16.00;99.90
21759;DHT22;11041;50.854;20.580;2023-08-31T05:11:37;15.90;99.90
21759;DHT22;11041;50.854;20.580;2023-08-31T05:14:08;15.90;99.90
21759;DHT22;11041;50.854;20.580;2023-08-31T05:16:36;16.00;99.90
21759;DHT22;11041;50.854;20.580;2023-08-31T05:19:02;16.10;99.90
21759;DHT22;11041;50.854;20.580;2023-08-31T05:21:30;16.10;99.90
21759;DHT22;11041;50.854;20.580;2023-08-31T05:23:58;16.10;99.90
21759;DHT22;11041;50.854;20.580;2023-08-31T05:26:27;16.10;99.90
21759;DHT22;11041;50.854;20.580;2023-08-31T05:28:54;16.20;99.90
21759;DHT22;11041;50.854;20.580;2023-08-31T05:31:24;16.10;99.90
21759;DHT22;11041;50.854;20.580;2023-08-31T05:33:51;16.10;99.90
21759;DHT22;11041;50.854;20.580;2023-08-31T05:36:20;16.10;99.90
21759;DHT22;11041;50.854;20.580;2023-08-31T05:38:49;16.20;99.90
21759;DHT22;11041;50.854;20.580;2023-08-31T05:41:17;16.20;99.90
21759;DHT22;11041;50.854;20.580;2023-08-31T05:43:43;16.00;99.90
21759;DHT22;11041;50.854;20.580;2023-08-31T05:46:11;15.90;99.90
21759;DHT22;11041;50.854;20.580;2023-08-31T05:48:38;16.00;99.90
21759;DHT22;11041;50.854;20.580;2023-08-31T05:51:05;16.10;99.90
21759;DHT22;11041;50.854;20.580;2023-08-31T05:53:32;16.20;99.90
21759;DHT22;11041;50.854;20.580;2023-08-31T05:56:01;16.30;99.90
21759;DHT22;11041;50.854;20.580;2023-08-31T05:58:32;16.40;99.90
21759;DHT22;11041;50.854;20.580;2023-08-31T06:01:02;16.40;99.90
21759;DHT22;11041;50.854;20.580;2023-08-31T06:03:31;16.50;99.90
21759;DHT22;11041;50.854;20.580;2023-08-31T06:05:59;16.50;99.90
21759;DHT22;11041;50.854;20.580;2023-08-31T06:08:27;16.60;99.90
21759;DHT22;11041;50.854;20.580;2023-08-31T06:10:56;16.50;99.90
21759;DHT22;11041;50.854;20.580;2023-08-31T06:13:27;16.50;99.90
21759;DHT22;11041;50.854;20.580;2023-08-31T06:15:56;16.50;99.90
21759;DHT22;11041;50.854;20.580;2023-08-31T06:18:24;16.50;99.90
21759;DHT22;11041;50.854;20.580;2023-08-31T06:20:53;16.60;99.90
21759;DHT22;11041;50.854;20.580;2023-08-31T06:23:19;16.50;99.90
21759;DHT22;11041;50.854;20.580;2023-08-31T06:25:47;16.60;99.90
21759;DHT22;11041;50.854;20.580;2023-08-31T06:28:14;16.70;99.90
21759;DHT22;11041;50.854;20.580;2023-08-31T06:30:41;16.80;99.90
21759;DHT22;11041;50.854;20.580;2023-08-31T06:33:15;16.80;99.90
21759;DHT22;11041;50.854;20.580;2023-08-31T06:35:47;16.80;99.90
21759;DHT22;11041;50.854;20.580;2023-08-31T06:38:20;16.80;99.90
21759;DHT22;11041;50.854;20.580;2023-08-31T06:40:49;17.00;99.90
21759;DHT22;11041;50.854;20.580;2023-08-31T06:43:16;17.00;99.90
21759;DHT22;11041;50.854;20.580;2023-08-31T06:45:43;17.00;99.90
21759;DHT22;11041;50.854;20.580;2023-08-31T06:48:11;16.90;99.90
21759;DHT22;11041;50.854;20.580;2023-08-31T06:50:37;17.10;99.90
21759;DHT22;11041;50.854;20.580;2023-08-31T06:53:04;17.10;99.90
21759;DHT22;11041;50.854;20.580;2023-08-31T06:55:33;17.00;99.90
21759;DHT22;11041;50.854;20.580;2023-08-31T06:58:02;16.90;99.90
21759;DHT22;11041;50.854;20.580;2023-08-31T07:00:30;17.00;99.90
21759;DHT22;11041;50.854;20.580;2023-08-31T07:02:58;17.20;99.90
21759;DHT22;11041;50.854;20.580;2023-08-31T07:05:25;17.20;99.90
21759;DHT22;11041;50.854;20.580;2023-08-31T07:07:54;17.30;99.90
21759;DHT22;11041;50.854;20.580;2023-08-31T07:10:24;17.30;99.90
21759;DHT22;11041;50.854;20.580;2023-08-31T07:12:52;17.30;99.90
21759;DHT22;11041;50.854;20.580;2023-08-31T07:15:18;17.40;99.90
21759;DHT22;11041;50.854;20.580;2023-08-31T07:17:45;17.30;99.90
21759;DHT22;11041;50.854;20.580;2023-08-31T07:20:14;17.20;99.90
21759;DHT22;11041;50.854;20.580;2023-08-31T07:22:40;17.20;99.90
21759;DHT22;11041;50.854;20.580;2023-08-31T07:25:07;17.30;99.90
21759;DHT22;11041;50.854;20.580;2023-08-31T07:27:34;17.30;99.90
21759;DHT22;11041;50.854;20.580;2023-08-31T07:30:01;17.30;99.90
21759;DHT22;11041;50.854;20.580;2023-08-31T07:32:29;17.30;99.90
21759;DHT22;11041;50.854;20.580;2023-08-31T07:34:56;17.30;99.90
21759;DHT22;11041;50.854;20.580;2023-08-31T07:37:25;17.40;99.90
21759;DHT22;11041;50.854;20.580;2023-08-31T07:39:52;17.50;99.90
21759;DHT22;11041;50.854;20.580;2023-08-31T07:42:19;17.30;99.90
21759;DHT22;11041;50.854;20.580;2023-08-31T07:44:47;17.40;99.90
21759;DHT22;11041;50.854;20.580;2023-08-31T07:47:14;17.50;99.90
21759;DHT22;11041;50.854;20.580;2023-08-31T07:49:42;17.60;99.90
21759;DHT22;11041;50.854;20.580;2023-08-31T07:52:10;17.50;99.90
21759;DHT22;11041;50.854;20.580;2023-08-31T07:54:37;17.80;99.90
21759;DHT22;11041;50.854;20.580;2023-08-31T07:57:04;18.00;99.90
21759;DHT22;11041;50.854;20.580;2023-08-31T07:59:31;18.20;99.90
21759;DHT22;11041;50.854;20.580;2023-08-31T08:01:58;18.50;99.90
21759;DHT22;11041;50.854;20.580;2023-08-31T08:04:27;18.60;99.90
21759;DHT22;11041;50.854;20.580;2023-08-31T08:06:55;18.70;99.90
21759;DHT22;11041;50.854;20.580;2023-08-31T08:09:24;18.80;99.90
21759;DHT22;11041;50.854;20.580;2023-08-31T08:11:51;18.90;99.90
21759;DHT22;11041;50.854;20.580;2023-08-31T08:14:19;19.00;99.90
21759;DHT22;11041;50.854;20.580;2023-08-31T08:16:45;19.00;99.90
21759;DHT22;11041;50.854;20.580;2023-08-31T08:19:12;18.70;99.90
21759;DHT22;11041;50.854;20.580;2023-08-31T08:21:46;18.80;99.90
21759;DHT22;11041;50.854;20.580;2023-08-31T08:24:13;18.60;99.90
21759;DHT22;11041;50.854;20.580;2023-08-31T08:26:44;18.40;99.90
21759;DHT22;11041;50.854;20.580;2023-08-31T08:29:13;18.50;99.90
21759;DHT22;11041;50.854;20.580;2023-08-31T08:31:41;18.40;99.90
21759;DHT22;11041;50.854;20.580;2023-08-31T08:34:10;18.60;99.90
21759;DHT22;11041;50.854;20.580;2023-08-31T08:36:37;18.70;99.90
21759;DHT22;11041;50.854;20.580;2023-08-31T08:39:06;18.80;99.90
21759;DHT22;11041;50.854;20.580;2023-08-31T08:41:33;19.00;99.90
21759;DHT22;11041;50.854;20.580;2023-08-31T08:44:04;19.20;99.90
21759;DHT22;11041;50.854;20.580;2023-08-31T08:46:35;19.40;99.90
21759;DHT22;11041;50.854;20.580;2023-08-31T08:49:05;19.50;99.90
21759;DHT22;11041;50.854;20.580;2023-08-31T08:51:32;19.70;99.90
21759;DHT22;11041;50.854;20.580;2023-08-31T08:53:59;19.60;99.90
21759;DHT22;11041;50.854;20.580;2023-08-31T08:56:27;19.60;99.90
21759;DHT22;11041;50.854;20.580;2023-08-31T08:58:54;19.70;99.90
21759;DHT22;11041;50.854;20.580;2023-08-31T09:01:22;19.50;99.90
21759;DHT22;11041;50.854;20.580;2023-08-31T09:03:50;19.50;99.90
21759;DHT22;11041;50.854;20.580;2023-08-31T09:06:17;19.70;99.90
21759;DHT22;11041;50.854;20.580;2023-08-31T09:08:44;19.90;99.90
21759;DHT22;11041;50.854;20.580;2023-08-31T09:11:23;20.00;99.90
21759;DHT22;11041;50.854;20.580;2023-08-31T09:13:53;19.80;99.90
21759;DHT22;11041;50.854;20.580;2023-08-31T09:16:26;20.00;99.90
21759;DHT22;11041;50.854;20.580;2023-08-31T09:18:56;20.30;99.90
21759;DHT22;11041;50.854;20.580;2023-08-31T09:21:37;20.30;99.90
21759;DHT22;11041;50.854;20.580;2023-08-31T09:24:07;20.50;99.90
21759;DHT22;11041;50.854;20.580;2023-08-31T09:26:43;20.20;99.90
21759;DHT22;11041;50.854;20.580;2023-08-31T09:29:19;20.30;99.90
21759;DHT22;11041;50.854;20.580;2023-08-31T09:31:47;20.40;99.90
21759;DHT22;11041;50.854;20.580;2023-08-31T09:34:15;20.40;99.90
21759;DHT22;11041;50.854;20.580;2023-08-31T09:36:43;20.40;99.90
21759;DHT22;11041;50.854;20.580;2023-08-31T09:39:14;20.40;99.90
21759;DHT22;11041;50.854;20.580;2023-08-31T09:41:57;20.50;99.90
21759;DHT22;11041;50.854;20.580;2023-08-31T09:44:25;20.30;99.90
21759;DHT22;11041;50.854;20.580;2023-08-31T09:46:52;20.30;99.90
21759;DHT22;11041;50.854;20.580;2023-08-31T09:49:25;20.50;99.90
21759;DHT22;11041;50.854;20.580;2023-08-31T09:51:52;20.40;99.90
21759;DHT22;11041;50.854;20.580;2023-08-31T09:54:21;20.40;99.90
21759;DHT22;11041;50.854;20.580;2023-08-31T09:56:51;20.30;99.90
21759;DHT22;11041;50.854;20.580;2023-08-31T09:59:24;20.30;99.90
21759;DHT22;11041;50.854;20.580;2023-08-31T10:01:51;20.50;99.90
21759;DHT22;11041;50.854;20.580;2023-08-31T10:04:18;20.60;99.90
21759;DHT22;11041;50.854;20.580;2023-08-31T10:06:45;20.70;99.90
21759;DHT22;11041;50.854;20.580;2023-08-31T10:09:16;20.70;99.90
21759;DHT22;11041;50.854;20.580;2023-08-31T10:11:43;20.70;99.90
21759;DHT22;11041;50.854;20.580;2023-08-31T10:14:11;20.60;99.90
21759;DHT22;11041;50.854;20.580;2023-08-31T10:16:39;20.70;99.90
21759;DHT22;11041;50.854;20.580;2023-08-31T10:19:09;20.80;99.90
21759;DHT22;11041;50.854;20.580;2023-08-31T10:21:35;20.60;99.90
21759;DHT22;11041;50.854;20.580;2023-08-31T10:24:03;20.80;99.90
21759;DHT22;11041;50.854;20.580;2023-08-31T10:26:33;20.90;99.90
21759;DHT22;11041;50.854;20.580;2023-08-31T10:29:01;21.00;99.90
21759;DHT22;11041;50.854;20.580;2023-08-31T10:31:33;20.70;99.90
21759;DHT22;11041;50.854;20.580;2023-08-31T10:34:05;20.80;99.90
21759;DHT22;11041;50.854;20.580;2023-08-31T10:36:38;20.90;99.90
21759;DHT22;11041;50.854;20.580;2023-08-31T10:39:19;21.10;99.90
21759;DHT22;11041;50.854;20.580;2023-08-31T10:41:56;21.00;99.90
21759;DHT22;11041;50.854;20.580;2023-08-31T10:44:25;21.10;99.90
21759;DHT22;11041;50.854;20.580;2023-08-31T10:47:00;21.30;99.90
21759;DHT22;11041;50.854;20.580;2023-08-31T10:49:29;21.10;99.90
21759;DHT22;11041;50.854;20.580;2023-08-31T10:52:19;21.20;99.90
21759;DHT22;11041;50.854;20.580;2023-08-31T10:54:46;21.20;99.90
21759;DHT22;11041;50.854;20.580;2023-08-31T10:57:14;21.20;99.90
21759;DHT22;11041;50.854;20.580;2023-08-31T10:59:52;21.20;99.90
21759;DHT22;11041;50.854;20.580;2023-08-31T11:05:11;21.20;99.90
21759;DHT22;11041;50.854;20.580;2023-08-31T11:07:47;21.20;99.90
21759;DHT22;11041;50.854;20.580;2023-08-31T11:10:24;21.30;99.90
21759;DHT22;11041;50.854;20.580;2023-08-31T11:12:56;21.40;99.90
21759;DHT22;11041;50.854;20.580;2023-08-31T11:15:25;21.30;99.90
21759;DHT22;11041;50.854;20.580;2023-08-31T11:17:58;21.60;99.90
21759;DHT22;11041;50.854;20.580;2023-08-31T11:20:26;21.70;99.90
21759;DHT22;11041;50.854;20.580;2023-08-31T11:23:00;21.80;99.90
21759;DHT22;11041;50.854;20.580;2023-08-31T11:25:31;21.60;99.90
21759;DHT22;11041;50.854;20.580;2023-08-31T11:28:03;21.70;99.90
21759;DHT22;11041;50.854;20.580;2023-08-31T11:30:35;21.60;99.90
21759;DHT22;11041;50.854;20.580;2023-08-31T11:33:06;21.60;99.90
21759;DHT22;11041;50.854;20.580;2023-08-31T11:35:44;21.60;99.90
21759;DHT22;11041;50.854;20.580;2023-08-31T11:38:14;21.40;99.90
21759;DHT22;11041;50.854;20.580;2023-08-31T11:40:44;21.50;99.90
21759;DHT22;11041;50.854;20.580;2023-08-31T11:43:14;21.50;99.90
21759;DHT22;11041;50.854;20.580;2023-08-31T11:45:46;21.70;99.90
21759;DHT22;11041;50.854;20.580;2023-08-31T11:48:13;22.00;99.90
21759;DHT22;11041;50.854;20.580;2023-08-31T11:50:42;22.10;99.90
21759;DHT22;11041;50.854;20.580;2023-08-31T11:53:14;22.10;99.90
21759;DHT22;11041;50.854;20.580;2023-08-31T11:55:52;22.10;99.90
21759;DHT22;11041;50.854;20.580;2023-08-31T11:58:22;22.10;99.90
21759;DHT22;11041;50.854;20.580;2023-08-31T12:00:57;22.10;99.90
21759;DHT22;11041;50.854;20.580;2023-08-31T12:03:25;22.10;99.90
21759;DHT22;11041;50.854;20.580;2023-08-31T12:06:09;21.80;99.90
21759;DHT22;11041;50.854;20.580;2023-08-31T12:08:37;21.90;99.90
21759;DHT22;11041;50.854;20.580;2023-08-31T12:11:06;22.10;99.90
21759;DHT22;11041;50.854;20.580;2023-08-31T12:13:33;22.20;99.90
21759;DHT22;11041;50.854;20.580;2023-08-31T12:16:00;22.20;99.90
21759;DHT22;11041;50.854;20.580;2023-08-31T12:18:30;22.30;99.90
21759;DHT22;11041;50.854;20.580;2023-08-31T12:21:00;22.30;99.90
21759;DHT22;11041;50.854;20.580;2023-08-31T12:23:28;22.40;99.90
21759;DHT22;11041;50.854;20.580;2023-08-31T12:25:57;22.40;99.90
21759;DHT22;11041;50.854;20.580;2023-08-31T12:28:25;22.60;99.90
21759;DHT22;11041;50.854;20.580;2023-08-31T12:30:55;22.60;99.90
21759;DHT22;11041;50.854;20.580;2023-08-31T12:33:29;22.80;99.90
21759;DHT22;11041;50.854;20.580;2023-08-31T12:35:56;22.50;99.90
21759;DHT22;11041;50.854;20.580;2023-08-31T12:38:23;22.70;99.90
21759;DHT22;11041;50.854;20.580;2023-08-31T12:40:51;23.00;99.90
21759;DHT22;11041;50.854;20.580;2023-08-31T12:43:18;23.30;99.90
21759;DHT22;11041;50.854;20.580;2023-08-31T12:45:47;23.50;99.90
21759;DHT22;11041;50.854;20.580;2023-08-31T12:48:16;23.00;99.90
21759;DHT22;11041;50.854;20.580;2023-08-31T12:50:46;23.30;99.90
21759;DHT22;11041;50.854;20.580;2023-08-31T12:53:14;23.50;99.90
21759;DHT22;11041;50.854;20.580;2023-08-31T12:55:41;23.60;99.90
21759;DHT22;11041;50.854;20.580;2023-08-31T12:58:08;23.50;99.90
21759;DHT22;11041;50.854;20.580;2023-08-31T13:00:34;23.40;99.90
21759;DHT22;11041;50.854;20.580;2023-08-31T13:03:03;23.60;99.90
21759;DHT22;11041;50.854;20.580;2023-08-31T13:05:33;23.80;99.90
21759;DHT22;11041;50.854;20.580;2023-08-31T13:07:59;24.00;99.90
21759;DHT22;11041;50.854;20.580;2023-08-31T13:10:26;24.10;99.90
21759;DHT22;11041;50.854;20.580;2023-08-31T13:12:53;24.30;99.90
21759;DHT22;11041;50.854;20.580;2023-08-31T13:15:21;24.20;99.90
21759;DHT22;11041;50.854;20.580;2023-08-31T13:17:48;24.50;99.90
21759;DHT22;11041;50.854;20.580;2023-08-31T13:20:15;24.50;99.90
21759;DHT22;11041;50.854;20.580;2023-08-31T13:22:42;24.20;99.90
21759;DHT22;11041;50.854;20.580;2023-08-31T13:25:11;23.90;99.90
21759;DHT22;11041;50.854;20.580;2023-08-31T13:27:38;24.10;99.90
21759;DHT22;11041;50.854;20.580;2023-08-31T13:30:06;24.20;99.90
21759;DHT22;11041;50.854;20.580;2023-08-31T13:32:33;24.40;99.90
21759;DHT22;11041;50.854;20.580;2023-08-31T13:35:01;24.30;99.90
21759;DHT22;11041;50.854;20.580;2023-08-31T13:37:28;24.40;99.90
21759;DHT22;11041;50.854;20.580;2023-08-31T13:39:56;24.60;99.90
21759;DHT22;11041;50.854;20.580;2023-08-31T13:42:23;24.30;99.90
21759;DHT22;11041;50.854;20.580;2023-08-31T13:44:50;24.00;99.90
21759;DHT22;11041;50.854;20.580;2023-08-31T13:47:19;24.40;99.90
21759;DHT22;11041;50.854;20.580;2023-08-31T13:49:49;24.40;99.90
21759;DHT22;11041;50.854;20.580;2023-08-31T13:52:17;24.40;99.90
21759;DHT22;11041;50.854;20.580;2023-08-31T13:54:51;24.40;99.90
21759;DHT22;11041;50.854;20.580;2023-08-31T13:57:17;24.60;99.90
21759;DHT22;11041;50.854;20.580;2023-08-31T13:59:52;24.80;99.90
21759;DHT22;11041;50.854;20.580;2023-08-31T14:02:21;24.90;99.90
21759;DHT22;11041;50.854;20.580;2023-08-31T14:04:51;25.00;99.90
21759;DHT22;11041;50.854;20.580;2023-08-31T14:07:22;24.60;99.90
21759;DHT22;11041;50.854;20.580;2023-08-31T14:09:49;24.10;99.90
21759;DHT22;11041;50.854;20.580;2023-08-31T14:12:17;23.90;99.90
21759;DHT22;11041;50.854;20.580;2023-08-31T14:14:44;24.10;99.90
21759;DHT22;11041;50.854;20.580;2023-08-31T14:17:12;24.20;99.90
21759;DHT22;11041;50.854;20.580;2023-08-31T14:19:39;24.00;99.90
21759;DHT22;11041;50.854;20.580;2023-08-31T14:22:06;23.70;99.90
21759;DHT22;11041;50.854;20.580;2023-08-31T14:24:36;23.60;99.90
21759;DHT22;11041;50.854;20.580;2023-08-31T14:27:05;23.40;99.90
21759;DHT22;11041;50.854;20.580;2023-08-31T14:29:32;23.20;99.90
21759;DHT22;11041;50.854;20.580;2023-08-31T14:32:01;23.10;99.90
21759;DHT22;11041;50.854;20.580;2023-08-31T14:34:29;23.00;99.90
21759;DHT22;11041;50.854;20.580;2023-08-31T14:36:58;22.60;99.90
21759;DHT22;11041;50.854;20.580;2023-08-31T14:39:27;22.50;99.90
21759;DHT22;11041;50.854;20.580;2023-08-31T14:41:57;22.30;99.90
21759;DHT22;11041;50.854;20.580;2023-08-31T14:44:25;21.50;99.90
21759;DHT22;11041;50.854;20.580;2023-08-31T14:46:53;20.90;99.90
21759;DHT22;11041;50.854;20.580;2023-08-31T14:49:24;20.60;99.90
21759;DHT22;11041;50.854;20.580;2023-08-31T14:51:51;19.60;99.90
21759;DHT22;11041;50.854;20.580;2023-08-31T14:54:19;19.10;99.90
21759;DHT22;11041;50.854;20.580;2023-08-31T14:56:48;18.80;99.90
21759;DHT22;11041;50.854;20.580;2023-08-31T14:59:18;18.50;99.90
21759;DHT22;11041;50.854;20.580;2023-08-31T15:01:48;18.20;99.90
21759;DHT22;11041;50.854;20.580;2023-08-31T15:04:15;17.30;99.90
21759;DHT22;11041;50.854;20.580;2023-08-31T15:06:42;16.80;99.90
21759;DHT22;11041;50.854;20.580;2023-08-31T15:09:12;17.00;99.90
21759;DHT22;11041;50.854;20.580;2023-08-31T15:11:39;17.20;99.90
21759;DHT22;11041;50.854;20.580;2023-08-31T15:14:13;16.80;99.90
21759;DHT22;11041;50.854;20.580;2023-08-31T15:16:42;16.70;99.90
21759;DHT22;11041;50.854;20.580;2023-08-31T15:19:12;16.80;99.90
21759;DHT22;11041;50.854;20.580;2023-08-31T15:21:43;16.80;99.90
21759;DHT22;11041;50.854;20.580;2023-08-31T15:24:13;16.90;99.90
21759;DHT22;11041;50.854;20.580;2023-08-31T15:26:42;17.10;99.90
21759;DHT22;11041;50.854;20.580;2023-08-31T15:29:09;17.10;99.90
21759;DHT22;11041;50.854;20.580;2023-08-31T15:31:40;17.20;99.90
21759;DHT22;11041;50.854;20.580;2023-08-31T15:34:10;17.20;99.90
21759;DHT22;11041;50.854;20.580;2023-08-31T15:36:38;17.30;99.90
21759;DHT22;11041;50.854;20.580;2023-08-31T15:39:06;17.40;99.90